sensor_id;sensor_type;location;lat;lon;timestamp;temperature;humidity
18408;DHT22;9330;52.210;21.174;2023-04-01T00:00:31;9.40;99.90
18408;DHT22;9330;52.210;21.174;2023-04-01T00:02:58;9.40;99.90
18408;DHT22;9330;52.210;21.174;2023-04-01T00:05:25;9.40;99.90
18408;DHT22;9330;52.210;21.174;2023-04-01T00:07:52;9.40;99.90
18408;DHT22;9330;52.210;21.174;2023-04-01T00:10:21;9.30;99.90
18408;DHT22;9330;52.210;21.174;2023-04-01T00:12:48;9.30;99.90
18408;DHT22;9330;52.210;21.174;2023-04-01T00:15:15;9.40;99.90
18408;DHT22;9330;52.210;21.174;2023-04-01T00:17:42;9.40;99.90
18408;DHT22;9330;52.210;21.174;2023-04-01T00:20:10;9.30;99.90
18408;DHT22;9330;52.210;21.174;2023-04-01T00:22:38;9.30;99.90
18408;DHT22;9330;52.210;21.174;2023-04-01T00:25:05;9.40;99.90
18408;DHT22;9330;52.210;21.174;2023-04-01T00:27:34;9.30;99.90
18408;DHT22;9330;52.210;21.174;2023-04-01T00:30:00;9.40;99.90
18408;DHT22;9330;52.210;21.174;2023-04-01T00:32:27;9.30;99.90
18408;DHT22;9330;52.210;21.174;2023-04-01T00:34:56;9.30;99.90
18408;DHT22;9330;52.210;21.174;2023-04-01T00:37:24;9.30;99.90
18408;DHT22;9330;52.210;21.174;2023-04-01T00:39:51;9.30;99.90
18408;DHT22;9330;52.210;21.174;2023-04-01T00:42:18;9.30;99.90
18408;DHT22;9330;52.210;21.174;2023-04-01T00:44:50;9.30;99.90
18408;DHT22;9330;52.210;21.174;2023-04-01T00:47:17;9.30;99.90
18408;DHT22;9330;52.210;21.174;2023-04-01T00:49:47;9.30;99.90
18408;DHT22;9330;52.210;21.174;2023-04-01T00:52:17;9.20;99.90
18408;DHT22;9330;52.210;21.174;2023-04-01T00:54:48;9.20;99.90
18408;DHT22;9330;52.210;21.174;2023-04-01T00:57:19;9.20;99.90
18408;DHT22;9330;52.210;21.174;2023-04-01T00:59:51;9.30;99.90
18408;DHT22;9330;52.210;21.174;2023-04-01T01:02:20;9.30;99.90
18408;DHT22;9330;52.210;21.174;2023-04-01T01:04:47;9.30;99.90
18408;DHT22;9330;52.210;21.174;2023-04-01T01:07:22;9.30;99.90
18408;DHT22;9330;52.210;21.174;2023-04-01T01:09:59;9.20;99.90
18408;DHT22;9330;52.210;21.174;2023-04-01T01:12:33;9.20;99.90
18408;DHT22;9330;52.210;21.174;2023-04-01T01:15:10;9.20;99.90
18408;DHT22;9330;52.210;21.174;2023-04-01T01:17:48;9.30;99.90
18408;DHT22;9330;52.210;21.174;2023-04-01T01:20:40;9.30;99.90
18408;DHT22;9330;52.210;21.174;2023-04-01T01:23:39;9.20;99.90
18408;DHT22;9330;52.210;21.174;2023-04-01T01:39:42;9.10;99.90
18408;DHT22;9330;52.210;21.174;2023-04-01T01:42:13;9.20;99.90
18408;DHT22;9330;52.210;21.174;2023-04-01T01:44:44;9.20;99.90
18408;DHT22;9330;52.210;21.174;2023-04-01T01:47:12;9.20;99.90
18408;DHT22;9330;52.210;21.174;2023-04-01T01:49:42;9.20;99.90
18408;DHT22;9330;52.210;21.174;2023-04-01T01:52:10;9.10;99.90
18408;DHT22;9330;52.210;21.174;2023-04-01T01:54:48;9.20;99.90
18408;DHT22;9330;52.210;21.174;2023-04-01T01:57:17;9.10;99.90
18408;DHT22;9330;52.210;21.174;2023-04-01T01:59:47;9.10;99.90
18408;DHT22;9330;52.210;21.174;2023-04-01T02:02:15;9.10;99.90
18408;DHT22;9330;52.210;21.174;2023-04-01T02:04:44;9.00;99.90
18408;DHT22;9330;52.210;21.174;2023-04-01T02:07:16;9.00;99.90
18408;DHT22;9330;52.210;21.174;2023-04-01T02:09:46;9.00;99.90
18408;DHT22;9330;52.210;21.174;2023-04-01T02:12:15;9.10;99.90
18408;DHT22;9330;52.210;21.174;2023-04-01T02:14:45;9.00;99.90
18408;DHT22;9330;52.210;21.174;2023-04-01T02:17:16;9.00;99.90
18408;DHT22;9330;52.210;21.174;2023-04-01T02:19:48;9.00;99.90
18408;DHT22;9330;52.210;21.174;2023-04-01T02:22:20;8.90;99.90
18408;DHT22;9330;52.210;21.174;2023-04-01T02:24:50;9.00;99.90
18408;DHT22;9330;52.210;21.174;2023-04-01T02:27:17;9.00;99.90
18408;DHT22;9330;52.210;21.174;2023-04-01T02:29:44;9.10;99.90
18408;DHT22;9330;52.210;21.174;2023-04-01T02:32:13;8.90;99.90
18408;DHT22;9330;52.210;21.174;2023-04-01T02:34:40;8.90;99.90
18408;DHT22;9330;52.210;21.174;2023-04-01T02:37:08;8.90;99.90
18408;DHT22;9330;52.210;21.174;2023-04-01T02:39:35;9.00;99.90
18408;DHT22;9330;52.210;21.174;2023-04-01T02:42:03;8.90;99.90
18408;DHT22;9330;52.210;21.174;2023-04-01T02:44:31;8.90;99.90
18408;DHT22;9330;52.210;21.174;2023-04-01T02:46:57;8.90;99.90
18408;DHT22;9330;52.210;21.174;2023-04-01T02:49:24;8.90;99.90
18408;DHT22;9330;52.210;21.174;2023-04-01T02:51:51;8.90;99.90
18408;DHT22;9330;52.210;21.174;2023-04-01T02:54:18;8.90;99.90
18408;DHT22;9330;52.210;21.174;2023-04-01T02:56:45;8.80;99.90
18408;DHT22;9330;52.210;21.174;2023-04-01T02:59:14;8.80;99.90
18408;DHT22;9330;52.210;21.174;2023-04-01T03:01:40;8.80;99.90
18408;DHT22;9330;52.210;21.174;2023-04-01T03:04:07;8.90;99.90
18408;DHT22;9330;52.210;21.174;2023-04-01T03:06:34;8.90;99.90
18408;DHT22;9330;52.210;21.174;2023-04-01T03:09:01;8.80;99.90
18408;DHT22;9330;52.210;21.174;2023-04-01T03:11:28;8.90;99.90
18408;DHT22;9330;52.210;21.174;2023-04-01T03:13:55;8.90;99.90
18408;DHT22;9330;52.210;21.174;2023-04-01T03:16:23;8.80;99.90
18408;DHT22;9330;52.210;21.174;2023-04-01T03:18:50;8.80;99.90
18408;DHT22;9330;52.210;21.174;2023-04-01T03:21:19;8.90;99.90
18408;DHT22;9330;52.210;21.174;2023-04-01T03:23:46;8.90;99.90
18408;DHT22;9330;52.210;21.174;2023-04-01T03:26:13;8.80;99.90
18408;DHT22;9330;52.210;21.174;2023-04-01T03:28:40;8.80;99.90
18408;DHT22;9330;52.210;21.174;2023-04-01T03:31:07;8.80;99.90
18408;DHT22;9330;52.210;21.174;2023-04-01T03:33:35;8.90;99.90
18408;DHT22;9330;52.210;21.174;2023-04-01T03:36:03;8.80;99.90
18408;DHT22;9330;52.210;21.174;2023-04-01T03:38:32;8.90;99.90
18408;DHT22;9330;52.210;21.174;2023-04-01T03:40:58;8.80;99.90
18408;DHT22;9330;52.210;21.174;2023-04-01T03:43:25;8.80;99.90
18408;DHT22;9330;52.210;21.174;2023-04-01T03:45:53;8.90;99.90
18408;DHT22;9330;52.210;21.174;2023-04-01T03:48:22;8.90;99.90
18408;DHT22;9330;52.210;21.174;2023-04-01T03:50:52;8.80;99.90
18408;DHT22;9330;52.210;21.174;2023-04-01T03:53:19;8.90;99.90
18408;DHT22;9330;52.210;21.174;2023-04-01T03:55:46;8.90;99.90
18408;DHT22;9330;52.210;21.174;2023-04-01T03:58:14;8.90;99.90
18408;DHT22;9330;52.210;21.174;2023-04-01T04:00:40;8.90;99.90
18408;DHT22;9330;52.210;21.174;2023-04-01T04:03:07;8.80;99.90
18408;DHT22;9330;52.210;21.174;2023-04-01T04:05:34;8.80;99.90
18408;DHT22;9330;52.210;21.174;2023-04-01T04:08:02;8.80;99.90
18408;DHT22;9330;52.210;21.174;2023-04-01T04:10:29;8.80;99.90
18408;DHT22;9330;52.210;21.174;2023-04-01T04:12:56;8.80;99.90
18408;DHT22;9330;52.210;21.174;2023-04-01T04:15:23;8.80;99.90
18408;DHT22;9330;52.210;21.174;2023-04-01T04:17:50;8.80;99.90
18408;DHT22;9330;52.210;21.174;2023-04-01T04:20:17;8.80;99.90
18408;DHT22;9330;52.210;21.174;2023-04-01T04:22:44;8.80;99.90
18408;DHT22;9330;52.210;21.174;2023-04-01T04:25:12;8.90;99.90
18408;DHT22;9330;52.210;21.174;2023-04-01T04:27:39;8.80;99.90
18408;DHT22;9330;52.210;21.174;2023-04-01T04:30:08;8.80;99.90
18408;DHT22;9330;52.210;21.174;2023-04-01T04:32:35;8.80;99.90
18408;DHT22;9330;52.210;21.174;2023-04-01T04:35:02;8.90;99.90
18408;DHT22;9330;52.210;21.174;2023-04-01T04:37:29;8.80;99.90
18408;DHT22;9330;52.210;21.174;2023-04-01T04:39:56;8.80;99.90
18408;DHT22;9330;52.210;21.174;2023-04-01T04:42:24;8.90;99.90
18408;DHT22;9330;52.210;21.174;2023-04-01T04:44:51;8.80;99.90
18408;DHT22;9330;52.210;21.174;2023-04-01T04:47:18;8.80;99.90
18408;DHT22;9330;52.210;21.174;2023-04-01T04:49:45;8.90;99.90
18408;DHT22;9330;52.210;21.174;2023-04-01T04:52:12;8.80;99.90
18408;DHT22;9330;52.210;21.174;2023-04-01T04:54:38;8.80;99.90
18408;DHT22;9330;52.210;21.174;2023-04-01T04:57:05;8.90;99.90
18408;DHT22;9330;52.210;21.174;2023-04-01T04:59:33;8.80;99.90
18408;DHT22;9330;52.210;21.174;2023-04-01T05:02:00;8.80;99.90
18408;DHT22;9330;52.210;21.174;2023-04-01T05:04:27;8.90;99.90
18408;DHT22;9330;52.210;21.174;2023-04-01T05:06:54;8.90;99.90
18408;DHT22;9330;52.210;21.174;2023-04-01T05:09:21;9.00;99.90
18408;DHT22;9330;52.210;21.174;2023-04-01T05:11:48;8.90;99.90
18408;DHT22;9330;52.210;21.174;2023-04-01T05:14:16;9.00;99.90
18408;DHT22;9330;52.210;21.174;2023-04-01T05:16:44;8.90;99.90
18408;DHT22;9330;52.210;21.174;2023-04-01T05:19:11;9.10;99.90
18408;DHT22;9330;52.210;21.174;2023-04-01T05:21:38;9.00;99.90
18408;DHT22;9330;52.210;21.174;2023-04-01T05:24:07;9.10;99.90
18408;DHT22;9330;52.210;21.174;2023-04-01T05:26:35;9.00;99.90
18408;DHT22;9330;52.210;21.174;2023-04-01T05:29:02;9.00;99.90
18408;DHT22;9330;52.210;21.174;2023-04-01T05:31:29;9.00;99.90
18408;DHT22;9330;52.210;21.174;2023-04-01T05:33:57;9.10;99.90
18408;DHT22;9330;52.210;21.174;2023-04-01T05:36:24;9.10;99.90
18408;DHT22;9330;52.210;21.174;2023-04-01T05:38:54;9.10;99.90
18408;DHT22;9330;52.210;21.174;2023-04-01T05:41:21;9.20;99.90
18408;DHT22;9330;52.210;21.174;2023-04-01T05:43:48;9.00;99.90
18408;DHT22;9330;52.210;21.174;2023-04-01T05:46:15;9.10;99.90
18408;DHT22;9330;52.210;21.174;2023-04-01T05:48:42;9.10;99.90
18408;DHT22;9330;52.210;21.174;2023-04-01T05:51:13;9.20;99.90
18408;DHT22;9330;52.210;21.174;2023-04-01T05:53:41;9.20;99.90
18408;DHT22;9330;52.210;21.174;2023-04-01T05:56:08;9.10;99.90
18408;DHT22;9330;52.210;21.174;2023-04-01T05:58:35;9.10;99.90
18408;DHT22;9330;52.210;21.174;2023-04-01T06:01:03;9.20;99.90
18408;DHT22;9330;52.210;21.174;2023-04-01T06:03:30;9.20;99.90
18408;DHT22;9330;52.210;21.174;2023-04-01T06:05:57;9.40;99.90
18408;DHT22;9330;52.210;21.174;2023-04-01T06:08:25;9.20;99.90
18408;DHT22;9330;52.210;21.174;2023-04-01T06:11:01;9.20;99.90
18408;DHT22;9330;52.210;21.174;2023-04-01T06:13:51;9.30;99.90
18408;DHT22;9330;52.210;21.174;2023-04-01T06:16:26;9.30;99.90
18408;DHT22;9330;52.210;21.174;2023-04-01T06:19:22;9.40;99.90
18408;DHT22;9330;52.210;21.174;2023-04-01T06:22:03;9.50;99.90
18408;DHT22;9330;52.210;21.174;2023-04-01T06:24:52;9.70;99.90
18408;DHT22;9330;52.210;21.174;2023-04-01T06:27:42;9.70;99.90
18408;DHT22;9330;52.210;21.174;2023-04-01T06:30:29;9.60;99.90
18408;DHT22;9330;52.210;21.174;2023-04-01T06:33:15;9.60;99.90
18408;DHT22;9330;52.210;21.174;2023-04-01T06:36:07;9.70;99.90
18408;DHT22;9330;52.210;21.174;2023-04-01T06:38:45;9.70;99.90
18408;DHT22;9330;52.210;21.174;2023-04-01T06:42:00;9.60;99.90
18408;DHT22;9330;52.210;21.174;2023-04-01T06:44:34;9.60;99.90
18408;DHT22;9330;52.210;21.174;2023-04-01T06:47:06;9.70;99.90
18408;DHT22;9330;52.210;21.174;2023-04-01T06:49:47;9.60;99.90
18408;DHT22;9330;52.210;21.174;2023-04-01T06:52:22;9.60;99.90
18408;DHT22;9330;52.210;21.174;2023-04-01T06:54:55;9.70;99.90
18408;DHT22;9330;52.210;21.174;2023-04-01T06:57:31;9.70;99.90
18408;DHT22;9330;52.210;21.174;2023-04-01T07:00:01;9.70;99.90
18408;DHT22;9330;52.210;21.174;2023-04-01T07:02:34;9.70;99.90
18408;DHT22;9330;52.210;21.174;2023-04-01T07:05:04;9.70;99.90
18408;DHT22;9330;52.210;21.174;2023-04-01T07:07:36;9.80;99.90
18408;DHT22;9330;52.210;21.174;2023-04-01T07:10:10;9.90;99.90
18408;DHT22;9330;52.210;21.174;2023-04-01T07:12:47;9.70;99.90
18408;DHT22;9330;52.210;21.174;2023-04-01T07:15:19;9.80;99.90
18408;DHT22;9330;52.210;21.174;2023-04-01T07:17:50;10.00;99.90
18408;DHT22;9330;52.210;21.174;2023-04-01T07:20:23;9.80;99.90
18408;DHT22;9330;52.210;21.174;2023-04-01T07:22:53;9.90;99.90
18408;DHT22;9330;52.210;21.174;2023-04-01T07:25:24;9.80;99.90
18408;DHT22;9330;52.210;21.174;2023-04-01T07:27:59;10.00;99.90
18408;DHT22;9330;52.210;21.174;2023-04-01T07:30:30;10.00;99.90
18408;DHT22;9330;52.210;21.174;2023-04-01T07:33:04;10.00;99.90
18408;DHT22;9330;52.210;21.174;2023-04-01T07:35:35;10.00;99.90
18408;DHT22;9330;52.210;21.174;2023-04-01T07:38:14;9.80;99.90
18408;DHT22;9330;52.210;21.174;2023-04-01T07:40:48;9.80;99.90
18408;DHT22;9330;52.210;21.174;2023-04-01T07:43:33;9.90;99.90
18408;DHT22;9330;52.210;21.174;2023-04-01T07:46:13;10.00;99.90
18408;DHT22;9330;52.210;21.174;2023-04-01T07:48:47;9.90;99.90
18408;DHT22;9330;52.210;21.174;2023-04-01T07:51:21;9.90;99.90
18408;DHT22;9330;52.210;21.174;2023-04-01T07:53:56;9.80;99.90
18408;DHT22;9330;52.210;21.174;2023-04-01T07:56:28;9.90;99.90
18408;DHT22;9330;52.210;21.174;2023-04-01T07:59:04;9.80;99.90
18408;DHT22;9330;52.210;21.174;2023-04-01T08:01:39;9.90;99.90
18408;DHT22;9330;52.210;21.174;2023-04-01T08:04:26;9.90;99.90
18408;DHT22;9330;52.210;21.174;2023-04-01T08:06:58;10.00;99.90
18408;DHT22;9330;52.210;21.174;2023-04-01T08:09:35;10.20;99.90
18408;DHT22;9330;52.210;21.174;2023-04-01T08:12:17;10.10;99.90
18408;DHT22;9330;52.210;21.174;2023-04-01T08:15:02;10.20;99.90
18408;DHT22;9330;52.210;21.174;2023-04-01T08:17:36;10.50;99.90
18408;DHT22;9330;52.210;21.174;2023-04-01T08:20:19;10.60;99.90
18408;DHT22;9330;52.210;21.174;2023-04-01T08:22:51;10.70;99.90
18408;DHT22;9330;52.210;21.174;2023-04-01T08:25:24;10.70;99.90
18408;DHT22;9330;52.210;21.174;2023-04-01T08:27:53;10.70;99.90
18408;DHT22;9330;52.210;21.174;2023-04-01T08:30:26;10.70;99.90
18408;DHT22;9330;52.210;21.174;2023-04-01T08:32:57;10.70;99.90
18408;DHT22;9330;52.210;21.174;2023-04-01T08:35:28;10.70;99.90
18408;DHT22;9330;52.210;21.174;2023-04-01T08:38:01;10.70;99.90
18408;DHT22;9330;52.210;21.174;2023-04-01T08:40:55;10.60;99.90
18408;DHT22;9330;52.210;21.174;2023-04-01T08:43:38;10.60;99.90
18408;DHT22;9330;52.210;21.174;2023-04-01T08:46:34;10.70;99.90
18408;DHT22;9330;52.210;21.174;2023-04-01T08:49:20;10.70;99.90
18408;DHT22;9330;52.210;21.174;2023-04-01T08:52:15;10.70;99.90
18408;DHT22;9330;52.210;21.174;2023-04-01T08:57:44;10.80;99.90
18408;DHT22;9330;52.210;21.174;2023-04-01T09:00:21;10.90;99.90
18408;DHT22;9330;52.210;21.174;2023-04-01T09:03:22;10.80;99.90
18408;DHT22;9330;52.210;21.174;2023-04-01T09:06:33;10.80;99.90
18408;DHT22;9330;52.210;21.174;2023-04-01T09:09:35;10.80;99.90
18408;DHT22;9330;52.210;21.174;2023-04-01T09:12:25;10.90;99.90
18408;DHT22;9330;52.210;21.174;2023-04-01T09:15:26;10.80;99.90
18408;DHT22;9330;52.210;21.174;2023-04-01T09:18:34;10.80;99.90
18408;DHT22;9330;52.210;21.174;2023-04-01T09:21:32;10.70;99.90
18408;DHT22;9330;52.210;21.174;2023-04-01T09:24:22;10.80;99.90
18408;DHT22;9330;52.210;21.174;2023-04-01T09:27:04;10.60;99.90
18408;DHT22;9330;52.210;21.174;2023-04-01T09:35:39;10.70;99.90
18408;DHT22;9330;52.210;21.174;2023-04-01T09:38:20;10.80;99.90
18408;DHT22;9330;52.210;21.174;2023-04-01T09:40:54;10.80;99.90
18408;DHT22;9330;52.210;21.174;2023-04-01T09:43:28;10.80;99.90
18408;DHT22;9330;52.210;21.174;2023-04-01T09:46:11;10.70;99.90
18408;DHT22;9330;52.210;21.174;2023-04-01T09:49:20;10.70;99.90
18408;DHT22;9330;52.210;21.174;2023-04-01T09:52:02;10.70;99.90
18408;DHT22;9330;52.210;21.174;2023-04-01T09:54:48;10.70;99.90
18408;DHT22;9330;52.210;21.174;2023-04-01T09:57:49;10.80;99.90
18408;DHT22;9330;52.210;21.174;2023-04-01T10:00:53;10.50;99.90
18408;DHT22;9330;52.210;21.174;2023-04-01T10:13:07;10.40;99.90
18408;DHT22;9330;52.210;21.174;2023-04-01T10:18:56;10.30;99.90
18408;DHT22;9330;52.210;21.174;2023-04-01T10:21:57;10.20;99.90
18408;DHT22;9330;52.210;21.174;2023-04-01T10:27:37;10.00;99.90
18408;DHT22;9330;52.210;21.174;2023-04-01T10:30:42;10.00;99.90
18408;DHT22;9330;52.210;21.174;2023-04-01T10:33:59;9.90;99.90
18408;DHT22;9330;52.210;21.174;2023-04-01T10:39:58;9.90;99.90
18408;DHT22;9330;52.210;21.174;2023-04-01T10:45:53;9.90;99.90
18408;DHT22;9330;52.210;21.174;2023-04-01T10:48:48;10.00;99.90
18408;DHT22;9330;52.210;21.174;2023-04-01T10:51:30;10.00;99.90
18408;DHT22;9330;52.210;21.174;2023-04-01T10:54:17;10.10;99.90
18408;DHT22;9330;52.210;21.174;2023-04-01T10:56:51;10.10;99.90
18408;DHT22;9330;52.210;21.174;2023-04-01T11:00:02;10.20;99.90
18408;DHT22;9330;52.210;21.174;2023-04-01T11:03:13;10.20;99.90
18408;DHT22;9330;52.210;21.174;2023-04-01T11:06:05;10.30;99.90
18408;DHT22;9330;52.210;21.174;2023-04-01T11:09:11;10.40;99.90
18408;DHT22;9330;52.210;21.174;2023-04-01T11:15:20;10.80;99.90
18408;DHT22;9330;52.210;21.174;2023-04-01T11:24:21;11.30;99.90
18408;DHT22;9330;52.210;21.174;2023-04-01T11:27:00;11.40;99.90
18408;DHT22;9330;52.210;21.174;2023-04-01T11:29:49;11.50;99.90
18408;DHT22;9330;52.210;21.174;2023-04-01T11:35:42;11.50;99.90
18408;DHT22;9330;52.210;21.174;2023-04-01T11:38:19;11.40;99.90
18408;DHT22;9330;52.210;21.174;2023-04-01T11:40:56;11.40;99.90
18408;DHT22;9330;52.210;21.174;2023-04-01T11:43:31;11.40;99.90
18408;DHT22;9330;52.210;21.174;2023-04-01T11:46:03;11.50;99.90
18408;DHT22;9330;52.210;21.174;2023-04-01T11:48:55;11.50;99.90
18408;DHT22;9330;52.210;21.174;2023-04-01T11:51:40;11.50;99.90
18408;DHT22;9330;52.210;21.174;2023-04-01T11:54:30;11.50;99.90
18408;DHT22;9330;52.210;21.174;2023-04-01T11:57:13;11.50;99.90
18408;DHT22;9330;52.210;21.174;2023-04-01T12:02:46;11.50;99.90
18408;DHT22;9330;52.210;21.174;2023-04-01T12:05:28;11.50;99.90
18408;DHT22;9330;52.210;21.174;2023-04-01T12:08:13;11.50;99.90
18408;DHT22;9330;52.210;21.174;2023-04-01T12:10:49;11.40;99.90
18408;DHT22;9330;52.210;21.174;2023-04-01T12:13:34;11.60;99.90
18408;DHT22;9330;52.210;21.174;2023-04-01T12:16:17;11.90;99.90
18408;DHT22;9330;52.210;21.174;2023-04-01T12:18:52;12.10;99.90
18408;DHT22;9330;52.210;21.174;2023-04-01T12:21:25;12.30;99.90
18408;DHT22;9330;52.210;21.174;2023-04-01T12:24:06;12.10;99.90
18408;DHT22;9330;52.210;21.174;2023-04-01T12:26:52;12.10;99.90
18408;DHT22;9330;52.210;21.174;2023-04-01T12:29:49;12.10;99.90
18408;DHT22;9330;52.210;21.174;2023-04-01T12:32:30;11.90;99.90
18408;DHT22;9330;52.210;21.174;2023-04-01T12:35:12;11.90;99.90
18408;DHT22;9330;52.210;21.174;2023-04-01T12:37:50;11.90;99.90
18408;DHT22;9330;52.210;21.174;2023-04-01T12:40:40;11.70;99.90
18408;DHT22;9330;52.210;21.174;2023-04-01T12:43:28;11.90;99.90
18408;DHT22;9330;52.210;21.174;2023-04-01T12:46:05;12.00;99.90
18408;DHT22;9330;52.210;21.174;2023-04-01T12:48:59;11.90;99.90
18408;DHT22;9330;52.210;21.174;2023-04-01T12:51:54;11.90;99.90
18408;DHT22;9330;52.210;21.174;2023-04-01T12:57:45;11.90;99.90
18408;DHT22;9330;52.210;21.174;2023-04-01T13:00:44;12.00;99.90
18408;DHT22;9330;52.210;21.174;2023-04-01T13:06:24;12.30;99.90
18408;DHT22;9330;52.210;21.174;2023-04-01T13:09:01;12.30;99.90
18408;DHT22;9330;52.210;21.174;2023-04-01T13:11:40;12.40;99.90
18408;DHT22;9330;52.210;21.174;2023-04-01T13:14:35;12.30;99.90
18408;DHT22;9330;52.210;21.174;2023-04-01T13:17:13;12.30;99.90
18408;DHT22;9330;52.210;21.174;2023-04-01T13:19:47;12.30;99.90
18408;DHT22;9330;52.210;21.174;2023-04-01T13:22:21;12.40;99.90
18408;DHT22;9330;52.210;21.174;2023-04-01T13:24:52;12.20;99.90
18408;DHT22;9330;52.210;21.174;2023-04-01T13:27:29;12.20;99.90
18408;DHT22;9330;52.210;21.174;2023-04-01T13:30:07;12.20;99.90
18408;DHT22;9330;52.210;21.174;2023-04-01T13:32:41;12.10;99.90
18408;DHT22;9330;52.210;21.174;2023-04-01T13:35:33;12.20;99.90
18408;DHT22;9330;52.210;21.174;2023-04-01T13:38:29;12.10;99.90
18408;DHT22;9330;52.210;21.174;2023-04-01T13:41:04;12.00;99.90
18408;DHT22;9330;52.210;21.174;2023-04-01T13:43:37;12.00;99.90
18408;DHT22;9330;52.210;21.174;2023-04-01T13:46:16;11.90;99.90
18408;DHT22;9330;52.210;21.174;2023-04-01T13:49:16;11.90;99.90
18408;DHT22;9330;52.210;21.174;2023-04-01T13:52:10;11.80;99.90
18408;DHT22;9330;52.210;21.174;2023-04-01T13:54:56;11.80;99.90
18408;DHT22;9330;52.210;21.174;2023-04-01T13:57:43;11.70;99.90
18408;DHT22;9330;52.210;21.174;2023-04-01T14:00:25;11.70;99.90
18408;DHT22;9330;52.210;21.174;2023-04-01T14:03:26;11.70;99.90
18408;DHT22;9330;52.210;21.174;2023-04-01T14:06:05;11.60;99.90
18408;DHT22;9330;52.210;21.174;2023-04-01T14:08:51;11.60;99.90
18408;DHT22;9330;52.210;21.174;2023-04-01T14:11:25;11.60;99.90
18408;DHT22;9330;52.210;21.174;2023-04-01T14:14:01;11.40;99.90
18408;DHT22;9330;52.210;21.174;2023-04-01T14:17:07;11.50;99.90
18408;DHT22;9330;52.210;21.174;2023-04-01T14:19:52;11.40;99.90
18408;DHT22;9330;52.210;21.174;2023-04-01T14:22:30;11.30;99.90
18408;DHT22;9330;52.210;21.174;2023-04-01T14:25:30;11.20;99.90
18408;DHT22;9330;52.210;21.174;2023-04-01T14:28:07;11.20;99.90
18408;DHT22;9330;52.210;21.174;2023-04-01T14:30:43;11.20;99.90
18408;DHT22;9330;52.210;21.174;2023-04-01T14:36:32;11.20;99.90
18408;DHT22;9330;52.210;21.174;2023-04-01T14:39:15;11.10;99.90
18408;DHT22;9330;52.210;21.174;2023-04-01T14:41:48;11.10;99.90
18408;DHT22;9330;52.210;21.174;2023-04-01T14:47:34;11.00;99.90
18408;DHT22;9330;52.210;21.174;2023-04-01T14:50:09;11.00;99.90
18408;DHT22;9330;52.210;21.174;2023-04-01T14:52:41;10.90;99.90
18408;DHT22;9330;52.210;21.174;2023-04-01T14:55:21;11.00;99.90
18408;DHT22;9330;52.210;21.174;2023-04-01T14:58:10;10.90;99.90
18408;DHT22;9330;52.210;21.174;2023-04-01T15:00:52;10.90;99.90
18408;DHT22;9330;52.210;21.174;2023-04-01T15:03:26;10.80;99.90
18408;DHT22;9330;52.210;21.174;2023-04-01T15:06:00;10.60;99.90
18408;DHT22;9330;52.210;21.174;2023-04-01T15:08:44;10.80;99.90
18408;DHT22;9330;52.210;21.174;2023-04-01T15:11:32;10.70;99.90
18408;DHT22;9330;52.210;21.174;2023-04-01T15:14:37;10.60;99.90
18408;DHT22;9330;52.210;21.174;2023-04-01T15:17:36;10.50;99.90
18408;DHT22;9330;52.210;21.174;2023-04-01T15:20:32;10.40;99.90
18408;DHT22;9330;52.210;21.174;2023-04-01T15:23:11;10.30;99.90
18408;DHT22;9330;52.210;21.174;2023-04-01T15:25:57;10.30;99.90
18408;DHT22;9330;52.210;21.174;2023-04-01T15:28:33;10.20;99.90
18408;DHT22;9330;52.210;21.174;2023-04-01T15:31:09;10.20;99.90
18408;DHT22;9330;52.210;21.174;2023-04-01T15:36:38;10.10;99.90
18408;DHT22;9330;52.210;21.174;2023-04-01T15:39:16;10.20;99.90
18408;DHT22;9330;52.210;21.174;2023-04-01T15:41:55;10.00;99.90
18408;DHT22;9330;52.210;21.174;2023-04-01T15:44:44;10.00;99.90
18408;DHT22;9330;52.210;21.174;2023-04-01T15:47:31;9.90;99.90
18408;DHT22;9330;52.210;21.174;2023-04-01T15:52:50;9.80;99.90
18408;DHT22;9330;52.210;21.174;2023-04-01T15:55:21;9.70;99.90
18408;DHT22;9330;52.210;21.174;2023-04-01T16:00:46;9.70;99.90
18408;DHT22;9330;52.210;21.174;2023-04-01T16:03:36;9.50;99.90
18408;DHT22;9330;52.210;21.174;2023-04-01T16:06:17;9.50;99.90
18408;DHT22;9330;52.210;21.174;2023-04-01T16:11:45;9.40;99.90
18408;DHT22;9330;52.210;21.174;2023-04-01T16:14:20;9.40;99.90
18408;DHT22;9330;52.210;21.174;2023-04-01T16:16:57;9.40;99.90
18408;DHT22;9330;52.210;21.174;2023-04-01T16:19:37;9.40;99.90
18408;DHT22;9330;52.210;21.174;2023-04-01T16:22:08;9.20;99.90
18408;DHT22;9330;52.210;21.174;2023-04-01T16:24:44;9.20;99.90
18408;DHT22;9330;52.210;21.174;2023-04-01T16:27:16;9.20;99.90
18408;DHT22;9330;52.210;21.174;2023-04-01T16:29:49;9.20;99.90
18408;DHT22;9330;52.210;21.174;2023-04-01T16:32:29;9.10;99.90
18408;DHT22;9330;52.210;21.174;2023-04-01T16:35:12;9.10;99.90
18408;DHT22;9330;52.210;21.174;2023-04-01T16:37:47;9.10;99.90
18408;DHT22;9330;52.210;21.174;2023-04-01T16:40:24;9.00;99.90
18408;DHT22;9330;52.210;21.174;2023-04-01T16:42:53;8.90;99.90
18408;DHT22;9330;52.210;21.174;2023-04-01T16:45:32;8.90;99.90
18408;DHT22;9330;52.210;21.174;2023-04-01T16:48:10;8.90;99.90
18408;DHT22;9330;52.210;21.174;2023-04-01T16:50:49;8.90;99.90
18408;DHT22;9330;52.210;21.174;2023-04-01T16:53:25;8.90;99.90
18408;DHT22;9330;52.210;21.174;2023-04-01T16:56:04;8.80;99.90
18408;DHT22;9330;52.210;21.174;2023-04-01T16:58:36;9.00;99.90
18408;DHT22;9330;52.210;21.174;2023-04-01T17:01:05;8.90;99.90
18408;DHT22;9330;52.210;21.174;2023-04-01T17:03:38;8.80;99.90
18408;DHT22;9330;52.210;21.174;2023-04-01T17:09:19;8.80;99.90
18408;DHT22;9330;52.210;21.174;2023-04-01T17:11:52;8.70;99.90
18408;DHT22;9330;52.210;21.174;2023-04-01T17:14:25;8.70;99.90
18408;DHT22;9330;52.210;21.174;2023-04-01T17:17:18;8.70;99.90
18408;DHT22;9330;52.210;21.174;2023-04-01T17:20:13;8.80;99.90
18408;DHT22;9330;52.210;21.174;2023-04-01T17:22:52;8.70;99.90
18408;DHT22;9330;52.210;21.174;2023-04-01T17:25:32;8.70;99.90
18408;DHT22;9330;52.210;21.174;2023-04-01T17:28:09;8.70;99.90
18408;DHT22;9330;52.210;21.174;2023-04-01T17:30:40;8.60;99.90
18408;DHT22;9330;52.210;21.174;2023-04-01T17:33:37;8.70;99.90
18408;DHT22;9330;52.210;21.174;2023-04-01T17:36:19;8.60;99.90
18408;DHT22;9330;52.210;21.174;2023-04-01T17:39:01;8.60;99.90
18408;DHT22;9330;52.210;21.174;2023-04-01T17:41:41;8.60;99.90
18408;DHT22;9330;52.210;21.174;2023-04-01T17:44:23;8.60;99.90
18408;DHT22;9330;52.210;21.174;2023-04-01T17:47:05;8.70;99.90
18408;DHT22;9330;52.210;21.174;2023-04-01T17:49:39;8.60;99.90
18408;DHT22;9330;52.210;21.174;2023-04-01T17:52:16;8.60;99.90
18408;DHT22;9330;52.210;21.174;2023-04-01T17:54:53;8.70;99.90
18408;DHT22;9330;52.210;21.174;2023-04-01T17:57:39;8.70;99.90
18408;DHT22;9330;52.210;21.174;2023-04-01T18:00:19;8.70;99.90
18408;DHT22;9330;52.210;21.174;2023-04-01T18:03:00;8.70;99.90
18408;DHT22;9330;52.210;21.174;2023-04-01T18:05:40;8.70;99.90
18408;DHT22;9330;52.210;21.174;2023-04-01T18:08:29;8.80;99.90